createdAt,value
2022-10-08T00:01:36.190Z,19.27
2022-10-08T00:04:04.260Z,19.70
2022-10-08T00:06:33.302Z,19.08
2022-10-08T00:09:05.680Z,18.29
2022-10-08T00:11:37.748Z,17.64
2022-10-08T00:14:07.466Z,17.14
2022-10-08T00:16:39.454Z,17.01
2022-10-08T00:19:11.633Z,18.03
2022-10-08T00:21:43.119Z,19.12
2022-10-08T00:24:14.462Z,19.58
2022-10-08T00:26:44.365Z,18.84
2022-10-08T00:29:15.789Z,18.00
2022-10-08T00:31:47.076Z,17.34
2022-10-08T00:34:22.261Z,17.13
2022-10-08T00:36:51.893Z,17.95
2022-10-08T00:39:22.100Z,18.78
2022-10-08T00:41:53.762Z,18.94
2022-10-08T00:44:46.338Z,18.25
2022-10-08T00:47:31.395Z,17.41
2022-10-08T00:50:05.338Z,17.08
2022-10-08T00:52:36.259Z,17.94
2022-10-08T00:55:06.944Z,18.77
2022-10-08T00:57:36.727Z,19.15
2022-10-08T01:00:11.330Z,18.90
2022-10-08T01:02:39.520Z,18.11
2022-10-08T01:05:08.365Z,17.37
2022-10-08T01:07:51.210Z,16.92
2022-10-08T01:10:46.799Z,16.93
2022-10-08T01:13:43.700Z,16.89
2022-10-08T01:16:40.267Z,16.82
2022-10-08T01:19:38.442Z,16.76
2022-10-08T01:22:35.858Z,16.68
2022-10-08T01:25:35.688Z,16.56
2022-10-08T01:28:22.089Z,16.50
2022-10-08T01:31:04.861Z,16.58
2022-10-08T01:33:51.070Z,16.69
2022-10-08T01:36:22.532Z,16.78
2022-10-08T01:39:03.202Z,16.84
2022-10-08T01:41:33.780Z,16.90
2022-10-08T01:44:09.237Z,16.92
2022-10-08T01:46:41.859Z,16.96
2022-10-08T01:49:18.710Z,17.07
2022-10-08T01:52:03.506Z,17.20
2022-10-08T01:54:34.303Z,17.30
2022-10-08T01:57:05.912Z,17.33
2022-10-08T01:59:42.455Z,17.27
2022-10-08T02:02:17.583Z,17.25
2022-10-08T02:04:46.565Z,17.22
2022-10-08T02:07:24.969Z,17.17
2022-10-08T02:10:14.763Z,17.12
2022-10-08T02:12:44.517Z,17.30
2022-10-08T02:15:41.294Z,17.46
2022-10-08T02:18:18.993Z,17.59
2022-10-08T02:20:59.304Z,17.62
2022-10-08T02:23:53.101Z,17.59
2022-10-08T02:26:30.024Z,17.45
2022-10-08T02:29:15.175Z,17.30
2022-10-08T02:31:58.010Z,17.22
2022-10-08T02:34:35.231Z,17.29
2022-10-08T02:37:09.425Z,17.38
2022-10-08T02:39:44.010Z,17.35
2022-10-08T02:42:18.052Z,17.35
2022-10-08T02:44:57.766Z,17.32
2022-10-08T02:47:29.558Z,17.32
2022-10-08T02:50:03.160Z,17.35
2022-10-08T02:52:39.310Z,17.35
2022-10-08T02:55:26.787Z,17.38
2022-10-08T02:58:00.700Z,17.38
2022-10-08T03:00:35.927Z,17.36
2022-10-08T03:03:11.533Z,17.35
2022-10-08T03:05:42.248Z,17.29
2022-10-08T03:08:14.872Z,17.22
2022-10-08T03:10:44.195Z,17.17
2022-10-08T03:13:13.032Z,17.20
2022-10-08T03:15:41.500Z,17.26
2022-10-08T03:18:12.076Z,17.24
2022-10-08T03:20:46.028Z,17.22
2022-10-08T03:23:16.893Z,17.15
2022-10-08T03:25:45.508Z,17.07
2022-10-08T03:28:13.522Z,17.02
2022-10-08T03:30:41.691Z,17.16
2022-10-08T03:33:09.703Z,17.25
2022-10-08T03:35:37.644Z,17.40
2022-10-08T03:38:05.613Z,17.68
2022-10-08T03:40:33.682Z,17.70
2022-10-08T03:43:01.637Z,17.58
2022-10-08T03:45:29.667Z,17.44
2022-10-08T03:47:57.651Z,17.32
2022-10-08T03:50:25.641Z,17.17
2022-10-08T03:52:53.642Z,17.09
2022-10-08T03:55:21.589Z,17.16
2022-10-08T03:57:49.567Z,17.32
2022-10-08T04:00:17.901Z,17.47
2022-10-08T04:02:51.050Z,17.57
2022-10-08T04:05:19.331Z,17.59
2022-10-08T04:07:47.305Z,17.66
2022-10-08T04:10:15.648Z,17.74
2022-10-08T04:12:43.733Z,17.84
2022-10-08T04:15:11.743Z,17.97
2022-10-08T04:17:41.731Z,18.16
2022-10-08T04:20:10.367Z,18.77
2022-10-08T04:22:38.400Z,19.41
2022-10-08T04:25:06.570Z,19.94
2022-10-08T04:27:34.557Z,20.04
2022-10-08T04:30:02.634Z,19.26
2022-10-08T04:32:30.609Z,18.38
2022-10-08T04:34:58.611Z,17.68
2022-10-08T04:37:26.562Z,17.43
2022-10-08T04:39:54.636Z,18.33
2022-10-08T04:42:22.668Z,19.05
2022-10-08T04:44:50.667Z,19.47
2022-10-08T04:47:18.669Z,19.77
2022-10-08T04:49:49.780Z,19.68
2022-10-08T04:52:20.540Z,18.92
2022-10-08T04:54:49.003Z,18.11
2022-10-08T04:57:17.333Z,17.71
2022-10-08T05:00:06.087Z,18.34
2022-10-08T05:02:35.543Z,18.83
2022-10-08T05:05:04.219Z,19.05
2022-10-08T05:07:32.254Z,19.09
2022-10-08T05:10:00.392Z,19.01
2022-10-08T05:12:28.512Z,18.89
2022-10-08T05:14:56.779Z,19.06
2022-10-08T05:17:25.100Z,19.65
2022-10-08T05:19:53.123Z,20.01
2022-10-08T05:22:21.177Z,19.87
2022-10-08T05:24:49.286Z,19.00
2022-10-08T05:27:17.599Z,18.12
2022-10-08T05:29:46.097Z,17.44
2022-10-08T05:32:14.576Z,17.05
2022-10-08T05:34:42.929Z,17.31
2022-10-08T05:37:11.119Z,17.51
2022-10-08T05:39:39.275Z,17.64
2022-10-08T05:42:07.299Z,17.76
2022-10-08T05:44:37.751Z,17.84
2022-10-08T05:47:06.083Z,17.94
2022-10-08T05:49:34.281Z,18.02
2022-10-08T05:52:02.489Z,17.91
2022-10-08T05:54:31.130Z,18.05
2022-10-08T05:56:59.269Z,18.54
2022-10-08T05:59:27.385Z,19.19
2022-10-08T06:01:55.510Z,19.32
2022-10-08T06:04:23.915Z,19.38
2022-10-08T06:06:52.017Z,19.67
2022-10-08T06:09:21.168Z,20.13
2022-10-08T06:11:50.208Z,20.24
2022-10-08T06:14:20.500Z,19.51
2022-10-08T06:16:48.679Z,18.68
2022-10-08T06:19:16.888Z,18.27
2022-10-08T06:21:45.010Z,19.02
2022-10-08T06:24:13.787Z,19.91
2022-10-08T06:26:44.365Z,20.33
2022-10-08T06:29:17.693Z,20.70
2022-10-08T06:31:47.267Z,21.00
2022-10-08T06:34:16.242Z,20.89
2022-10-08T06:36:44.793Z,20.16
2022-10-08T06:39:15.848Z,19.39
2022-10-08T06:41:44.397Z,18.77
2022-10-08T06:44:14.753Z,18.50
2022-10-08T06:46:43.472Z,19.19
2022-10-08T06:49:12.552Z,19.86
2022-10-08T06:51:41.558Z,20.05
2022-10-08T06:54:09.750Z,20.07
2022-10-08T06:56:39.085Z,20.11
2022-10-08T06:59:08.733Z,20.05
2022-10-08T07:01:37.705Z,20.08
2022-10-08T07:04:07.030Z,20.31
2022-10-08T07:06:35.704Z,20.50
2022-10-08T07:09:05.382Z,20.68
2022-10-08T07:11:35.013Z,20.61
2022-10-08T07:14:03.524Z,20.46
2022-10-08T07:16:32.544Z,20.43
2022-10-08T07:19:00.817Z,20.62
2022-10-08T07:21:30.264Z,20.80
2022-10-08T07:24:01.265Z,20.94
2022-10-08T07:26:33.366Z,20.87
2022-10-08T07:29:12.568Z,20.73
2022-10-08T07:31:41.008Z,20.42
2022-10-08T07:34:12.709Z,19.91
2022-10-08T07:36:41.466Z,19.81
2022-10-08T07:39:19.143Z,20.07
2022-10-08T07:41:48.283Z,20.36
2022-10-08T07:44:17.519Z,20.61
2022-10-08T07:46:50.721Z,20.62
2022-10-08T07:49:20.801Z,20.58
2022-10-08T07:51:49.565Z,20.58
2022-10-08T07:54:19.880Z,20.71
2022-10-08T07:56:48.459Z,21.21
2022-10-08T07:59:17.066Z,21.47
2022-10-08T08:01:46.094Z,21.43
2022-10-08T08:04:15.254Z,20.85
2022-10-08T08:06:48.382Z,20.27
2022-10-08T08:09:18.829Z,20.26
2022-10-08T08:11:49.656Z,20.95
2022-10-08T08:14:22.036Z,21.59
2022-10-08T08:16:52.594Z,21.67
2022-10-08T08:19:21.171Z,21.09
2022-10-08T08:21:49.588Z,20.47
2022-10-08T08:24:17.809Z,20.08
2022-10-08T08:26:46.267Z,20.50
2022-10-08T08:29:18.473Z,21.44
2022-10-08T08:31:49.978Z,21.89
2022-10-08T08:34:21.594Z,21.40
2022-10-08T08:36:51.891Z,20.77
2022-10-08T08:39:24.120Z,20.32
2022-10-08T08:42:06.173Z,20.37
2022-10-08T08:44:43.121Z,21.43
2022-10-08T08:47:15.235Z,22.10
2022-10-08T08:49:52.161Z,21.69
2022-10-08T08:52:26.768Z,21.09
2022-10-08T08:54:55.298Z,20.68
2022-10-08T08:57:40.679Z,20.48
2022-10-08T09:00:17.110Z,21.29
2022-10-08T09:02:50.563Z,21.81
2022-10-08T09:05:21.398Z,21.43
2022-10-08T09:08:05.403Z,20.97
2022-10-08T09:10:42.833Z,20.58
2022-10-08T09:13:18.526Z,20.29
2022-10-08T09:15:47.457Z,20.48
2022-10-08T09:18:17.001Z,21.53
2022-10-08T09:20:45.610Z,21.83
2022-10-08T09:23:23.051Z,21.44
2022-10-08T09:26:20.220Z,20.96
2022-10-08T09:28:48.759Z,20.56
2022-10-08T09:31:40.895Z,20.33
2022-10-08T09:34:21.238Z,20.57
2022-10-08T09:36:52.775Z,21.71
2022-10-08T09:39:26.988Z,22.36
2022-10-08T09:42:04.063Z,21.98
2022-10-08T09:45:04.062Z,21.47
2022-10-08T09:47:32.661Z,21.04
2022-10-08T09:50:16.771Z,20.80
2022-10-08T09:52:49.669Z,20.61
2022-10-08T09:55:22.849Z,20.49
2022-10-08T09:57:56.768Z,20.48
2022-10-08T10:00:31.075Z,21.46
2022-10-08T10:03:00.966Z,22.44
2022-10-08T10:05:33.801Z,22.28
2022-10-08T10:08:04.633Z,21.92
2022-10-08T10:10:45.357Z,21.66
2022-10-08T10:13:20.650Z,21.49
2022-10-08T10:15:51.663Z,21.34
2022-10-08T10:18:24.609Z,21.21
2022-10-08T10:21:01.489Z,21.06
2022-10-08T10:23:41.615Z,20.88
2022-10-08T10:26:24.289Z,20.71
2022-10-08T10:29:06.827Z,20.55
2022-10-08T10:31:58.881Z,21.00
2022-10-08T10:34:29.228Z,21.57
2022-10-08T10:37:01.065Z,21.72
2022-10-08T10:39:39.633Z,21.31
2022-10-08T10:42:19.295Z,20.88
2022-10-08T10:44:54.873Z,20.57
2022-10-08T10:47:32.301Z,20.36
2022-10-08T10:50:02.059Z,20.17
2022-10-08T10:52:36.651Z,20.16
2022-10-08T10:55:40.612Z,20.35
2022-10-08T10:58:38.590Z,20.69
2022-10-08T11:01:36.149Z,21.86
2022-10-08T11:04:14.894Z,22.31
2022-10-08T11:06:57.313Z,21.80
2022-10-08T11:09:41.123Z,21.24
2022-10-08T11:12:30.981Z,20.87
2022-10-08T11:15:20.693Z,20.62
2022-10-08T11:17:58.757Z,20.44
2022-10-08T11:20:44.231Z,20.29
2022-10-08T11:23:16.062Z,20.57
2022-10-08T11:26:16.485Z,21.57
2022-10-08T11:29:16.466Z,22.24
2022-10-08T11:31:49.484Z,21.68
2022-10-08T11:34:24.339Z,21.20
2022-10-08T11:36:59.033Z,20.84
2022-10-08T11:39:27.272Z,20.56
2022-10-08T11:42:00.485Z,20.34
2022-10-08T11:44:30.717Z,20.45
2022-10-08T11:47:38.145Z,21.45
2022-10-08T11:50:21.792Z,22.00
2022-10-08T11:52:51.583Z,21.46
2022-10-08T11:55:30.673Z,20.96
2022-10-08T11:58:08.460Z,20.57
2022-10-08T12:00:40.495Z,20.30
2022-10-08T12:03:23.687Z,20.10
2022-10-08T12:05:54.873Z,20.40
2022-10-08T12:08:50.578Z,21.26
2022-10-08T12:11:37.603Z,21.87
2022-10-08T12:14:14.752Z,22.14
2022-10-08T12:16:48.819Z,21.60
2022-10-08T12:19:35.741Z,21.02
2022-10-08T12:22:05.422Z,20.53
2022-10-08T12:24:39.379Z,20.20
2022-10-08T12:27:27.729Z,20.13
2022-10-08T12:30:17.226Z,20.89
2022-10-08T12:32:45.485Z,21.48
2022-10-08T12:35:31.388Z,21.66
2022-10-08T12:38:17.740Z,21.18
2022-10-08T12:40:53.389Z,20.61
2022-10-08T12:43:47.855Z,20.21
2022-10-08T12:46:40.351Z,19.87
2022-10-08T12:49:35.659Z,19.81
2022-10-08T12:52:11.061Z,20.34
2022-10-08T12:54:46.593Z,20.64
2022-10-08T12:57:23.061Z,21.27
2022-10-08T12:59:53.910Z,21.63
2022-10-08T13:02:43.715Z,21.58
2022-10-08T13:05:24.783Z,21.02
2022-10-08T13:07:53.724Z,20.49
2022-10-08T13:10:25.038Z,20.12
2022-10-08T13:13:00.273Z,19.82
2022-10-08T13:15:29.236Z,19.79
2022-10-08T13:17:57.694Z,20.42
2022-10-08T13:20:26.764Z,20.84
2022-10-08T13:22:55.140Z,21.26
2022-10-08T13:25:38.844Z,21.60
2022-10-08T13:28:41.873Z,21.11
2022-10-08T13:31:23.649Z,20.42
2022-10-08T13:33:53.001Z,19.97
2022-10-08T13:36:23.742Z,19.78
2022-10-08T13:38:52.330Z,20.05
2022-10-08T13:41:24.007Z,20.46
2022-10-08T13:43:52.667Z,21.10
2022-10-08T13:46:20.910Z,21.35
2022-10-08T13:48:49.163Z,21.26
2022-10-08T13:51:17.360Z,20.69
2022-10-08T13:53:46.139Z,20.17
2022-10-08T13:56:15.219Z,19.78
2022-10-08T13:58:43.618Z,19.70
2022-10-08T14:01:11.949Z,20.12
2022-10-08T14:03:40.424Z,20.26
2022-10-08T14:06:08.791Z,20.37
2022-10-08T14:08:37.615Z,20.67
2022-10-08T14:11:06.090Z,20.84
2022-10-08T14:13:34.570Z,20.88
2022-10-08T14:16:02.947Z,21.06
2022-10-08T14:18:33.357Z,21.25
2022-10-08T14:21:04.930Z,21.48
2022-10-08T14:23:34.594Z,21.63
2022-10-08T14:26:03.649Z,21.60
2022-10-08T14:28:32.686Z,21.12
2022-10-08T14:31:04.457Z,20.58
2022-10-08T14:33:34.928Z,20.16
2022-10-08T14:36:07.443Z,19.83
2022-10-08T14:38:42.126Z,19.77
2022-10-08T14:41:16.925Z,20.15
2022-10-08T14:43:46.612Z,20.38
2022-10-08T14:46:15.045Z,20.40
2022-10-08T14:48:43.596Z,20.29
2022-10-08T14:51:12.641Z,20.11
2022-10-08T14:53:44.405Z,19.65
2022-10-08T14:56:13.996Z,19.19
2022-10-08T14:58:43.421Z,18.84
2022-10-08T15:01:13.761Z,18.73
2022-10-08T15:03:45.976Z,18.94
2022-10-08T15:06:17.885Z,19.05
2022-10-08T15:08:46.965Z,19.00
2022-10-08T15:11:16.100Z,19.08
2022-10-08T15:13:47.513Z,19.13
2022-10-08T15:16:20.841Z,19.23
2022-10-08T15:18:50.130Z,19.29
2022-10-08T15:21:19.532Z,19.36
2022-10-08T15:23:49.516Z,18.97
2022-10-08T15:26:18.454Z,18.52
2022-10-08T15:28:47.118Z,18.17
2022-10-08T15:31:24.327Z,17.88
2022-10-08T15:33:57.111Z,17.63
2022-10-08T15:36:30.097Z,17.43
2022-10-08T15:39:12.174Z,17.27
2022-10-08T15:41:43.347Z,17.59
2022-10-08T15:44:31.153Z,18.09
2022-10-08T15:47:05.298Z,18.26
2022-10-08T15:49:38.727Z,17.92
2022-10-08T15:52:13.025Z,17.58
2022-10-08T15:54:44.681Z,17.33
2022-10-08T15:57:16.127Z,17.13
2022-10-08T15:59:45.346Z,16.97
2022-10-08T16:02:17.430Z,16.86
2022-10-08T16:04:48.562Z,17.17
2022-10-08T16:07:17.674Z,17.77
2022-10-08T16:09:46.001Z,17.97
2022-10-08T16:12:15.676Z,17.67
2022-10-08T16:14:44.094Z,17.32
2022-10-08T16:17:12.672Z,17.08
2022-10-08T16:19:42.323Z,16.90
2022-10-08T16:22:11.105Z,16.75
2022-10-08T16:24:42.914Z,16.63
2022-10-08T16:27:13.811Z,16.51
2022-10-08T16:29:42.169Z,16.40
2022-10-08T16:32:11.377Z,16.28
2022-10-08T16:34:44.105Z,16.19
2022-10-08T16:37:13.253Z,16.09
2022-10-08T16:39:42.951Z,16.01
2022-10-08T16:42:11.920Z,15.93
2022-10-08T16:44:41.458Z,15.86
2022-10-08T16:47:10.063Z,15.80
2022-10-08T16:49:40.265Z,15.73
2022-10-08T16:52:09.043Z,15.66
2022-10-08T16:54:37.320Z,15.57
2022-10-08T16:57:05.672Z,15.50
2022-10-08T16:59:34.141Z,15.43
2022-10-08T17:02:03.663Z,15.47
2022-10-08T17:04:39.086Z,16.32
2022-10-08T17:07:08.058Z,17.01
2022-10-08T17:09:37.733Z,16.77
2022-10-08T17:12:06.401Z,16.40
2022-10-08T17:14:37.726Z,16.10
2022-10-08T17:17:06.373Z,15.87
2022-10-08T17:19:34.672Z,15.69
2022-10-08T17:22:02.890Z,15.54
2022-10-08T17:24:31.265Z,15.41
2022-10-08T17:26:59.543Z,15.29
2022-10-08T17:29:28.182Z,15.20
2022-10-08T17:31:56.493Z,15.48
2022-10-08T17:34:26.482Z,16.06
2022-10-08T17:36:55.368Z,16.45
2022-10-08T17:39:25.945Z,16.17
2022-10-08T17:41:54.351Z,15.81
2022-10-08T17:44:22.578Z,15.51
2022-10-08T17:46:52.395Z,15.28
2022-10-08T17:49:21.170Z,15.20
2022-10-08T17:51:51.227Z,15.63
2022-10-08T17:54:20.629Z,16.03
2022-10-08T17:56:49.496Z,16.28
2022-10-08T17:59:23.061Z,16.29
2022-10-08T18:01:51.944Z,15.88
2022-10-08T18:04:20.571Z,15.47
2022-10-08T18:06:49.122Z,15.12
2022-10-08T18:09:21.443Z,15.07
2022-10-08T18:11:53.634Z,15.37
2022-10-08T18:14:24.304Z,15.66
2022-10-08T18:16:53.679Z,15.93
2022-10-08T18:19:23.093Z,16.07
2022-10-08T18:21:51.608Z,16.13
2022-10-08T18:24:20.029Z,15.87
2022-10-08T18:26:48.474Z,15.40
2022-10-08T18:29:16.852Z,14.98
2022-10-08T18:31:46.937Z,15.01
2022-10-08T18:34:19.102Z,15.31
2022-10-08T18:36:48.216Z,15.47
2022-10-08T18:39:18.983Z,15.49
2022-10-08T18:41:49.879Z,15.51
2022-10-08T18:44:21.731Z,15.58
2022-10-08T18:46:51.271Z,15.57
2022-10-08T18:49:29.162Z,15.61
2022-10-08T18:51:58.847Z,15.64
2022-10-08T18:54:27.815Z,15.63
2022-10-08T18:56:57.202Z,15.62
2022-10-08T18:59:26.319Z,15.58
2022-10-08T19:01:59.523Z,15.52
2022-10-08T19:04:28.302Z,15.42
2022-10-08T19:06:57.905Z,15.36
2022-10-08T19:09:27.176Z,15.28
2022-10-08T19:11:57.849Z,15.35
2022-10-08T19:14:30.928Z,15.24
2022-10-08T19:17:05.727Z,15.13
2022-10-08T19:19:35.335Z,15.16
2022-10-08T19:22:08.272Z,15.18
2022-10-08T19:24:41.843Z,15.13
2022-10-08T19:27:12.781Z,15.02
2022-10-08T19:29:46.903Z,14.89
2022-10-08T19:32:23.747Z,14.89
2022-10-08T19:34:57.978Z,14.95
2022-10-08T19:37:33.188Z,14.78
2022-10-08T19:40:12.239Z,14.63
2022-10-08T19:42:49.956Z,14.58
2022-10-08T19:45:28.008Z,14.51
2022-10-08T19:48:06.223Z,14.47
2022-10-08T19:50:40.938Z,14.44
2022-10-08T19:53:22.983Z,14.47
2022-10-08T19:56:01.104Z,14.53
2022-10-08T19:58:34.251Z,14.52
2022-10-08T20:01:31.579Z,14.49
2022-10-08T20:04:13.129Z,14.52
2022-10-08T20:06:44.843Z,14.53
2022-10-08T20:09:16.562Z,14.51
2022-10-08T20:11:46.968Z,14.43
2022-10-08T20:14:22.528Z,14.39
2022-10-08T20:16:53.876Z,14.36
2022-10-08T20:19:23.418Z,14.35
2022-10-08T20:21:55.929Z,14.34
2022-10-08T20:24:29.551Z,14.33
2022-10-08T20:26:59.419Z,14.27
2022-10-08T20:29:31.122Z,14.21
2022-10-08T20:32:05.477Z,14.15
2022-10-08T20:34:34.856Z,14.06
2022-10-08T20:37:08.648Z,14.03
2022-10-08T20:39:40.622Z,14.02
2022-10-08T20:42:11.074Z,13.94
2022-10-08T20:44:43.005Z,13.89
2022-10-08T20:47:17.383Z,13.89
2022-10-08T20:49:47.417Z,13.89
2022-10-08T20:52:16.029Z,13.92
2022-10-08T20:54:44.990Z,13.97
2022-10-08T20:57:15.495Z,14.02
2022-10-08T20:59:44.502Z,14.13
2022-10-08T21:02:19.629Z,14.19
2022-10-08T21:04:49.323Z,14.19
2022-10-08T21:07:17.952Z,14.19
2022-10-08T21:09:47.175Z,14.20
2022-10-08T21:12:16.592Z,14.31
2022-10-08T21:14:45.269Z,14.60
2022-10-08T21:17:13.553Z,14.87
2022-10-08T21:19:42.751Z,15.06
2022-10-08T21:22:11.182Z,15.16
2022-10-08T21:24:40.062Z,15.26
2022-10-08T21:27:08.531Z,15.31
2022-10-08T21:29:37.890Z,15.32
2022-10-08T21:32:06.254Z,15.25
2022-10-08T21:34:34.559Z,15.11
2022-10-08T21:37:02.813Z,15.10
2022-10-08T21:39:31.117Z,15.18
2022-10-08T21:41:59.330Z,15.27
2022-10-08T21:44:27.623Z,15.34
2022-10-08T21:46:55.686Z,15.29
2022-10-08T21:49:25.371Z,15.34
2022-10-08T21:51:53.598Z,15.34
2022-10-08T21:54:21.727Z,15.29
2022-10-08T21:56:50.150Z,15.24
2022-10-08T21:59:18.409Z,15.21
2022-10-08T22:01:49.165Z,15.20
2022-10-08T22:04:23.092Z,15.25
2022-10-08T22:06:54.655Z,15.21
2022-10-08T22:09:26.598Z,15.19
2022-10-08T22:11:56.848Z,15.16
2022-10-08T22:14:25.442Z,15.00
2022-10-08T22:16:54.246Z,15.03
2022-10-08T22:19:22.569Z,15.03
2022-10-08T22:21:51.102Z,15.01
2022-10-08T22:24:19.331Z,15.02
2022-10-08T22:26:48.747Z,15.26
2022-10-08T22:29:17.320Z,15.42
2022-10-08T22:31:45.902Z,15.28
2022-10-08T22:34:14.366Z,15.31
2022-10-08T22:36:44.161Z,15.14
2022-10-08T22:39:12.973Z,15.30
2022-10-08T22:41:41.523Z,15.37
2022-10-08T22:44:10.062Z,15.53
2022-10-08T22:46:39.515Z,15.61
2022-10-08T22:49:10.818Z,15.70
2022-10-08T22:51:39.770Z,15.90
2022-10-08T22:54:08.299Z,15.59
2022-10-08T22:56:36.581Z,15.48
2022-10-08T22:59:04.755Z,15.61
2022-10-08T23:01:32.980Z,15.72
2022-10-08T23:04:01.167Z,15.70
2022-10-08T23:06:32.073Z,15.87
2022-10-08T23:09:03.391Z,15.86
2022-10-08T23:11:32.101Z,15.83
2022-10-08T23:14:01.726Z,15.61
2022-10-08T23:16:32.095Z,15.38
2022-10-08T23:19:03.811Z,15.28
2022-10-08T23:21:33.269Z,15.08
2022-10-08T23:24:02.319Z,14.91
2022-10-08T23:26:31.035Z,14.80
2022-10-08T23:29:01.036Z,14.68
2022-10-08T23:31:32.785Z,14.60
2022-10-08T23:34:01.642Z,14.42
2022-10-08T23:36:32.785Z,14.31
2022-10-08T23:39:01.132Z,14.19
2022-10-08T23:41:29.475Z,14.12
2022-10-08T23:44:01.562Z,14.02
2022-10-08T23:46:30.791Z,13.91
2022-10-08T23:48:59.885Z,13.82
2022-10-08T23:51:31.695Z,13.76
2022-10-08T23:54:01.491Z,13.70
2022-10-08T23:56:30.118Z,13.64
2022-10-08T23:58:58.607Z,13.53
